Time;durP1;ratioP1;P1;durP2;ratioP2;P2;SDS_P1;SDS_P2;PMS_P1;PMS_P2;Temp;Humidity;BMP_temperature;BMP_pressure;BME280_temperature;BME280_humidity;BME280_pressure;Samples;Min_cycle;Max_cycle;Signal;HPM_P1;HPM_P2
2023/06/03 00:01:23;;;;;;;;;16.00;15.00;;;;;16.94;56.50;101018.09;6228245;22;45412;-85
2023/06/03 00:03:48;;;;;;;;;18.67;15.67;;;;;16.85;56.17;101004.75;6227607;22;45884;-84
2023/06/03 00:06:14;;;;;;;;;18.67;17.33;;;;;16.89;56.38;101011.88;6227653;22;45237;-85
2023/06/03 00:08:42;;;;;;;;;23.00;19.67;;;;;16.84;57.38;101002.94;6225972;22;45329;-84
2023/06/03 00:11:08;;;;;;;;;17.33;14.00;;;;;16.77;57.12;101002.06;6227540;22;45372;-85
2023/06/03 00:13:34;;;;;;;;;14.33;9.33;;;;;16.72;58.06;100992.25;6224432;22;45380;-84
2023/06/03 00:15:59;;;;;;;;;21.00;16.00;;;;;16.77;57.76;101001.19;6198976;22;45317;-84
2023/06/03 00:18:26;;;;;;;;;16.33;15.67;;;;;16.77;57.72;101002.06;6226906;22;45254;-84
2023/06/03 00:20:52;;;;;;;;;18.00;18.00;;;;;16.71;57.68;101004.81;6200300;22;47035;-84
2023/06/03 00:23:18;;;;;;;;;20.00;18.67;;;;;16.69;58.61;100997.66;6200241;22;45382;-84
2023/06/03 00:25:45;;;;;;;;;17.00;15.67;;;;;16.76;58.37;101007.44;6200422;22;45366;-84
2023/06/03 00:28:10;;;;;;;;;19.33;19.33;;;;;16.59;58.31;100996.84;6229082;22;45414;-85
2023/06/03 00:30:36;;;;;;;;;16.00;14.67;;;;;16.65;59.02;101012.03;6228652;22;45387;-84
2023/06/03 00:33:02;;;;;;;;;14.00;14.00;;;;;16.54;58.98;100998.66;6200593;22;45336;-85
2023/06/03 00:35:27;;;;;;;;;19.67;19.67;;;;;16.46;59.52;100996.03;6226758;22;45311;-86
2023/06/03 00:37:57;;;;;;;;;23.33;18.67;;;;;16.43;60.02;100993.34;6199622;22;45572;-85
2023/06/03 00:40:22;;;;;;;;;21.00;20.67;;;;;16.37;60.84;101004.13;6227048;22;46269;-84
2023/06/03 00:42:48;;;;;;;;;19.67;19.67;;;;;16.27;61.30;100989.84;6225059;22;44832;-84
2023/06/03 00:45:13;;;;;;;;;17.00;17.00;;;;;16.23;61.25;101000.63;6174933;22;45487;-85
2023/06/03 00:47:39;;;;;;;;;25.00;20.67;;;;;16.32;61.15;100995.19;6225839;22;45480;-85
2023/06/03 00:50:11;;;;;;;;;24.33;18.67;;;;;16.28;61.49;100985.38;6200671;22;46748;-85
2023/06/03 00:52:40;;;;;;;;;26.00;22.00;;;;;16.28;61.58;100990.75;6200223;22;45322;-85
2023/06/03 00:55:06;;;;;;;;;24.33;22.33;;;;;16.24;61.96;100983.59;6223304;22;45323;-85
2023/06/03 00:57:31;;;;;;;;;21.33;19.00;;;;;16.22;62.04;100990.78;6225199;22;45372;-84
2023/06/03 00:59:57;;;;;;;;;26.33;23.00;;;;;16.25;62.25;100988.09;6224755;22;46598;-84
2023/06/03 01:02:26;;;;;;;;;20.67;19.67;;;;;16.31;62.07;100980.88;6226498;22;44872;-85
2023/06/03 01:04:57;;;;;;;;;26.00;23.33;;;;;16.36;62.35;100986.22;6227487;22;45345;-84
2023/06/03 01:07:37;;;;;;;;;21.33;21.33;;;;;16.37;62.21;100979.97;6201298;22;45431;-85
2023/06/03 01:10:23;;;;;;;;;14.33;14.33;;;;;16.38;62.28;100982.66;6200645;22;47158;-84
2023/06/03 01:13:01;;;;;;;;;18.00;15.00;;;;;16.34;62.71;100967.47;6223621;22;45369;-85
2023/06/03 01:15:29;;;;;;;;;24.33;22.67;;;;;16.25;62.70;100964.81;6227486;22;45264;-85
2023/06/03 01:17:58;;;;;;;;;24.00;20.00;;;;;16.31;63.08;100974.63;6200422;22;44782;-84
2023/06/03 01:20:26;;;;;;;;;21.67;19.00;;;;;16.15;62.95;100963.09;6225056;22;47231;-85
2023/06/03 01:22:57;;;;;;;;;18.33;17.00;;;;;16.20;63.14;100972.03;6227030;22;45208;-85
2023/06/03 01:28:49;;;;;;;;;19.67;18.00;;;;;15.94;63.99;100969.47;6227429;22;45153;-84
2023/06/03 01:31:16;;;;;;;;;22.67;21.00;;;;;15.96;65.26;100976.59;6225802;22;45461;-86
2023/06/03 01:33:41;;;;;;;;;22.67;22.33;;;;;15.93;64.73;100978.41;6197833;22;44758;-85
2023/06/03 01:36:08;;;;;;;;;22.33;20.33;;;;;15.97;64.65;100974.81;6223568;22;45902;-85
2023/06/03 01:38:35;;;;;;;;;26.33;23.00;;;;;15.99;64.94;100978.38;6224626;22;45657;-85
2023/06/03 01:41:03;;;;;;;;;24.33;20.33;;;;;15.99;64.70;100983.72;6225820;22;45569;-84
2023/06/03 01:43:32;;;;;;;;;23.67;23.67;;;;;15.92;66.26;100976.63;6224720;22;45550;-86
2023/06/03 01:45:58;;;;;;;;;22.67;20.33;;;;;15.75;65.72;100964.19;6226482;22;45319;-84
2023/06/03 01:48:23;;;;;;;;;21.67;20.00;;;;;15.76;65.52;100976.69;6200808;22;45175;-85
2023/06/03 01:50:49;;;;;;;;;24.00;23.00;;;;;15.74;67.24;100973.09;6225546;22;46746;-84
2023/06/03 01:53:15;;;;;;;;;22.67;20.33;;;;;15.69;66.53;100968.63;6225505;22;45898;-85
2023/06/03 01:55:41;;;;;;;;;21.00;20.00;;;;;15.62;66.76;100974.91;6224025;22;45290;-85
2023/06/03 01:58:06;;;;;;;;;24.00;23.33;;;;;15.62;66.99;100969.56;6225191;22;45493;-85
2023/06/03 02:00:31;;;;;;;;;21.00;21.00;;;;;15.59;67.50;100974.03;6227707;22;45442;-85
2023/06/03 02:02:57;;;;;;;;;22.00;22.00;;;;;15.51;67.88;100969.56;6201357;22;45562;-85
2023/06/03 02:05:22;;;;;;;;;23.67;23.33;;;;;15.47;67.04;100965.09;6225925;22;47018;-86
2023/06/03 02:07:47;;;;;;;;;22.33;22.33;;;;;15.49;68.36;100966.00;6201573;22;44854;-86
2023/06/03 02:10:13;;;;;;;;;28.67;24.33;;;;;15.43;67.60;100960.66;6229416;22;45626;-85
2023/06/03 02:12:38;;;;;;;;;29.33;25.33;;;;;15.42;68.31;100958.88;6226445;22;44835;-85
2023/06/03 02:15:04;;;;;;;;;26.00;22.67;;;;;15.45;68.95;100973.16;6200953;22;45328;-85
2023/06/03 02:17:30;;;;;;;;;24.67;23.67;;;;;15.46;68.88;100966.91;6200242;22;45228;-85
2023/06/03 02:19:57;;;;;;;;;22.67;22.00;;;;;15.49;68.76;100961.53;6226017;22;47239;-85
2023/06/03 02:22:23;;;;;;;;;27.00;20.67;;;;;15.44;68.85;100963.34;6224359;22;44762;-85
2023/06/03 02:24:49;;;;;;;;;28.33;24.67;;;;;15.41;68.40;100960.63;6227466;22;45337;-85
2023/06/03 02:27:24;;;;;;;;;24.67;22.67;;;;;15.47;68.94;100970.47;6227622;22;45244;-85
2023/06/03 02:29:51;;;;;;;;;26.67;25.00;;;;;15.39;70.49;100965.13;6218968;22;47042;-84
2023/06/03 02:32:19;;;;;;;;;24.00;19.33;;;;;15.33;70.60;100963.38;6257820;22;45324;-85
2023/06/03 02:34:44;;;;;;;;;26.00;23.33;;;;;15.25;70.23;100949.09;6259830;22;45509;-85
2023/06/03 02:37:10;;;;;;;;;23.00;22.00;;;;;15.34;70.34;100957.09;6231676;22;45620;-85
2023/06/03 02:39:36;;;;;;;;;25.67;25.67;;;;;15.41;69.87;100957.97;6230861;22;46723;-84
2023/06/03 02:42:02;;;;;;;;;25.00;22.67;;;;;15.38;70.00;100947.25;6230663;22;45383;-84
2023/06/03 02:44:29;;;;;;;;;22.67;22.67;;;;;15.44;69.97;100954.41;6258734;22;45295;-85
2023/06/03 02:46:54;;;;;;;;;27.67;24.00;;;;;15.43;69.97;100963.31;6232141;22;45391;-85
2023/06/03 02:49:20;;;;;;;;;29.67;24.00;;;;;15.42;69.96;100958.88;6257516;22;46001;-85
2023/06/03 02:52:18;;;;;;;;;27.33;25.33;;;;;15.51;69.99;100958.84;6255987;22;45162;-85
2023/06/03 02:54:44;;;;;;;;;27.00;23.00;;;;;15.43;70.18;100957.97;6173670;22;45346;-85
2023/06/03 02:57:15;;;;;;;;;28.67;26.33;;;;;15.53;70.19;100962.41;6255878;22;45278;-86
2023/06/03 02:59:42;;;;;;;;;26.00;25.00;;;;;15.44;69.99;100955.28;6229131;22;46811;-85
2023/06/03 03:02:11;;;;;;;;;23.00;22.00;;;;;15.40;70.35;100945.47;6255750;22;45286;-86
2023/06/03 03:04:36;;;;;;;;;23.33;22.67;;;;;15.43;69.94;100952.59;6232013;22;45438;-85
2023/06/03 03:07:07;;;;;;;;;26.33;26.00;;;;;15.47;70.70;100957.97;6259477;22;45312;-85
2023/06/03 03:09:33;;;;;;;;;26.67;22.33;;;;;15.40;70.62;100961.56;6258590;22;45477;-85
2023/06/03 03:11:59;;;;;;;;;25.00;24.67;;;;;15.36;70.38;100954.41;6258559;22;45320;-85
2023/06/03 03:14:24;;;;;;;;;26.67;26.67;;;;;15.31;70.80;100951.75;6232548;22;45295;-85
2023/06/03 03:16:51;;;;;;;;;25.00;25.00;;;;;15.33;70.78;100957.09;6232220;22;45288;-85
2023/06/03 03:19:16;;;;;;;;;25.33;24.33;;;;;15.31;70.72;100949.06;6254646;22;45271;-83
2023/06/03 03:21:42;;;;;;;;;18.67;18.33;;;;;15.30;70.68;100949.06;6231656;22;45672;-84
2023/06/03 03:24:08;;;;;;;;;28.33;25.33;;;;;15.27;70.87;100955.34;6232192;22;45308;-84
2023/06/03 03:26:33;;;;;;;;;26.00;23.00;;;;;15.19;71.13;100938.38;6257268;22;45370;-84
2023/06/03 03:29:05;;;;;;;;;26.67;24.00;;;;;15.38;70.94;100956.19;6252513;22;47881;-83
2023/06/03 03:31:31;;;;;;;;;28.00;28.00;;;;;15.30;71.31;100952.63;6228128;22;44801;-85
2023/06/03 03:33:56;;;;;;;;;27.67;26.00;;;;;15.30;71.03;100951.75;6227915;22;45212;-86
2023/06/03 03:36:22;;;;;;;;;23.33;22.00;;;;;15.29;71.73;100956.22;6225603;22;45358;-85
2023/06/03 03:39:00;;;;;;;;;26.00;24.67;;;;;15.27;71.22;100936.59;6199676;22;46775;-85
2023/06/03 03:41:26;;;;;;;;;28.33;24.00;;;;;15.22;71.28;100935.69;6224466;22;45291;-85
2023/06/03 03:43:51;;;;;;;;;25.00;24.33;;;;;15.33;71.64;100952.66;6199642;22;45324;-85
2023/06/03 03:46:17;;;;;;;;;27.00;24.33;;;;;15.31;71.59;100953.53;6226023;22;44812;-85
2023/06/03 03:48:44;;;;;;;;;30.67;26.67;;;;;15.36;71.34;100959.78;6224442;22;46919;-86
2023/06/03 03:51:14;;;;;;;;;24.33;24.33;;;;;15.44;71.36;100970.50;6199928;22;45687;-86
2023/06/03 03:53:46;;;;;;;;;31.67;28.33;;;;;15.34;71.27;100951.72;6226502;22;45290;-86
2023/06/03 03:56:21;;;;;;;;;28.67;27.00;;;;;15.47;71.35;100970.47;6226523;22;44781;-86
2023/06/03 03:58:48;;;;;;;;;24.67;24.00;;;;;15.37;71.06;100965.13;6200422;22;45316;-86
2023/06/03 04:01:18;;;;;;;;;28.67;25.67;;;;;15.45;71.60;100969.56;6226766;22;45343;-85
2023/06/03 04:03:49;;;;;;;;;24.00;22.67;;;;;15.48;71.39;100969.59;6200533;22;45337;-86
2023/06/03 04:06:30;;;;;;;;;29.67;27.00;;;;;15.51;71.40;100964.19;6225850;22;45343;-85
2023/06/03 04:08:56;;;;;;;;;31.33;31.00;;;;;15.39;71.23;100962.44;6224543;22;47579;-85
2023/06/03 04:11:30;;;;;;;;;28.33;25.33;;;;;15.49;71.17;100968.66;6199392;22;45413;-85
2023/06/03 04:13:58;;;;;;;;;26.67;24.67;;;;;15.43;71.47;100963.31;6226015;22;45220;-85
2023/06/03 04:17:00;;;;;;;;;27.00;25.00;;;;;15.55;71.26;100961.53;6225941;22;45593;-85
2023/06/03 04:19:36;;;;;;;;;27.33;27.00;;;;;15.48;71.47;100954.38;6226202;22;47043;-86
2023/06/03 04:22:10;;;;;;;;;26.00;23.33;;;;;15.52;71.39;100950.78;6227237;22;44732;-86
2023/06/03 04:24:42;;;;;;;;;29.33;26.00;;;;;15.62;71.17;100962.38;6227645;22;45286;-86
2023/06/03 04:27:08;;;;;;;;;31.00;28.33;;;;;15.52;71.25;100956.16;6227251;22;45288;-86
2023/06/03 04:29:36;;;;;;;;;31.00;25.67;;;;;15.60;71.05;100959.72;6210502;22;47728;-86
2023/06/03 04:32:02;;;;;;;;;26.67;22.00;;;;;15.59;71.38;100957.94;6228872;22;45545;-84
2023/06/03 04:34:36;;;;;;;;;24.67;21.00;;;;;15.73;70.91;100965.06;6229107;22;45373;-84
2023/06/03 04:37:01;;;;;;;;;25.00;24.33;;;;;15.73;70.27;100962.38;6255108;22;45358;-84
2023/06/03 04:39:27;;;;;;;;;27.67;23.67;;;;;15.76;70.13;100982.03;6254433;22;47181;-84
2023/06/03 04:41:53;;;;;;;;;30.33;27.33;;;;;15.75;70.02;100972.22;6228394;22;45624;-84
2023/06/03 04:44:19;;;;;;;;;9.00;9.00;;;;;15.78;69.93;100972.19;6227365;22;44705;-84
2023/06/03 04:46:45;;;;;;;;;26.00;21.00;;;;;15.87;69.69;100982.00;6227722;22;45669;-84
2023/06/03 04:49:11;;;;;;;;;29.00;26.00;;;;;15.94;69.26;100970.34;6254955;22;45641;-84
2023/06/03 04:51:40;;;;;;;;;26.33;25.33;;;;;16.14;68.84;100978.31;6228703;22;45916;-85
2023/06/03 04:54:05;;;;;;;;;22.33;22.33;;;;;16.25;68.29;100974.66;6255572;22;45416;-85
2023/06/03 04:56:31;;;;;;;;;25.00;25.00;;;;;16.38;68.17;100985.34;6255507;22;45343;-84
2023/06/03 04:58:57;;;;;;;;;28.33;27.00;;;;;16.40;67.45;100967.44;6256608;22;46981;-85
2023/06/03 05:01:24;;;;;;;;;25.00;24.00;;;;;16.62;67.24;100980.69;6231230;22;45417;-84
2023/06/03 05:03:51;;;;;;;;;24.67;24.67;;;;;16.72;67.11;100974.34;6257340;22;44780;-85
2023/06/03 05:06:17;;;;;;;;;27.67;26.00;;;;;16.82;66.50;100980.56;6233482;22;45232;-85
2023/06/03 05:08:42;;;;;;;;;22.67;22.67;;;;;16.93;65.94;100981.41;6231675;22;46687;-85
2023/06/03 05:11:08;;;;;;;;;25.67;25.00;;;;;17.11;65.07;100996.47;6232519;22;45348;-85
2023/06/03 05:13:36;;;;;;;;;23.33;21.33;;;;;17.17;64.94;100998.22;6232832;22;44830;-86
2023/06/03 05:16:02;;;;;;;;;16.00;14.00;;;;;17.25;64.88;100992.75;6259315;22;45441;-86
2023/06/03 05:18:27;;;;;;;;;22.67;20.67;;;;;17.35;64.71;101000.72;6255943;22;47728;-86
2023/06/03 05:20:53;;;;;;;;;25.00;22.00;;;;;17.46;64.84;100988.97;6257080;22;45247;-86
2023/06/03 05:26:42;;;;;;;;;26.33;26.33;;;;;17.65;63.92;100993.22;6261373;22;45375;-84
2023/06/03 05:29:07;;;;;;;;;22.33;21.67;;;;;17.51;64.20;100968.28;6254349;22;46212;-85
2023/06/03 05:31:32;;;;;;;;;25.00;22.33;;;;;17.67;63.60;100986.03;6228099;22;45329;-85
2023/06/03 05:33:58;;;;;;;;;26.00;25.00;;;;;17.79;63.90;100991.31;6200644;22;45710;-85
2023/06/03 05:36:26;;;;;;;;;24.67;24.67;;;;;17.90;63.50;100985.81;6226640;22;45567;-86
2023/06/03 05:38:52;;;;;;;;;29.33;26.33;;;;;18.03;63.00;100986.53;6201288;22;47867;-85
2023/06/03 05:41:20;;;;;;;;;26.67;23.67;;;;;18.09;62.93;100981.06;6202381;22;45300;-84
2023/06/03 05:43:45;;;;;;;;;24.33;23.67;;;;;18.16;62.34;100984.59;6201379;22;45473;-85
2023/06/03 05:46:11;;;;;;;;;22.67;18.67;;;;;18.29;61.46;100980.81;6227822;22;45434;-85
2023/06/03 05:48:36;;;;;;;;;21.33;20.67;;;;;18.29;61.31;100982.63;6227947;22;45526;-85
2023/06/03 05:51:03;;;;;;;;;18.00;18.00;;;;;18.41;60.90;100977.06;6227024;22;45413;-85
2023/06/03 05:53:28;;;;;;;;;28.00;26.67;;;;;18.45;60.80;100969.84;6227281;22;45310;-85
2023/06/03 05:55:54;;;;;;;;;25.33;23.67;;;;;18.63;60.00;100979.44;6229772;22;45183;-85
2023/06/03 05:58:21;;;;;;;;;27.67;21.67;;;;;18.70;59.77;100975.72;6227505;22;45375;-85
2023/06/03 06:00:48;;;;;;;;;23.33;20.33;;;;;18.67;59.27;100987.44;6226493;22;45383;-85
2023/06/03 06:03:13;;;;;;;;;21.00;19.33;;;;;18.61;58.92;100982.16;6200894;22;44843;-85
2023/06/03 06:05:39;;;;;;;;;20.00;20.00;;;;;18.58;59.45;100988.47;6226544;22;44883;-84
2023/06/03 06:08:06;;;;;;;;;19.67;18.00;;;;;18.70;59.03;101003.53;6226139;22;47138;-84
2023/06/03 06:10:33;;;;;;;;;26.33;22.33;;;;;18.70;58.49;100994.56;6200349;22;45498;-84
2023/06/03 06:12:58;;;;;;;;;22.00;21.00;;;;;18.58;58.64;100996.56;6201240;22;45294;-84
2023/06/03 06:15:23;;;;;;;;;17.67;16.00;;;;;18.76;58.18;101002.56;6228307;22;45284;-85
2023/06/03 06:17:49;;;;;;;;;17.33;17.33;;;;;18.82;58.34;100990.84;6202790;22;46482;-85
2023/06/03 06:20:14;;;;;;;;;22.67;20.33;;;;;18.86;58.04;100988.06;6227821;22;45481;-84
2023/06/03 06:22:43;;;;;;;;;21.00;20.67;;;;;18.91;58.38;100991.59;6201434;22;45218;-84
2023/06/03 06:25:10;;;;;;;;;21.00;20.00;;;;;18.90;58.25;100995.19;6201536;22;45512;-84
2023/06/03 06:27:35;;;;;;;;;18.33;18.33;;;;;18.91;57.81;100998.78;6200502;22;47246;-84
2023/06/03 06:30:05;;;;;;;;;22.67;22.00;;;;;18.96;57.75;101002.28;6236997;22;45355;-84
2023/06/03 06:32:32;;;;;;;;;18.00;18.00;;;;;18.88;57.60;100997.00;6230626;22;44786;-85
2023/06/03 06:34:57;;;;;;;;;18.67;18.33;;;;;19.07;57.46;101007.50;6256107;22;45263;-85
2023/06/03 06:37:23;;;;;;;;;20.67;19.00;;;;;18.93;57.79;100987.06;6257995;22;45275;-84
2023/06/03 06:39:52;;;;;;;;;20.00;19.00;;;;;19.10;57.35;101004.75;6257343;22;44867;-85
2023/06/03 06:42:31;;;;;;;;;23.00;23.00;;;;;19.10;57.06;100997.53;6231632;22;45339;-85
2023/06/03 06:44:56;;;;;;;;;18.00;17.00;;;;;19.07;57.68;101004.81;6233560;22;45588;-85
2023/06/03 06:47:26;;;;;;;;;24.33;20.33;;;;;19.13;56.80;101004.72;6232250;22;46670;-85
2023/06/03 06:49:55;;;;;;;;;20.00;18.67;;;;;19.09;57.17;101006.56;6257753;22;45388;-84
2023/06/03 06:52:22;;;;;;;;;19.67;19.00;;;;;19.07;56.95;101004.81;6233122;22;45354;-84
2023/06/03 06:54:48;;;;;;;;;22.33;18.00;;;;;19.09;57.08;100997.59;6258147;22;45715;-85
2023/06/03 06:57:27;;;;;;;;;19.33;18.00;;;;;19.32;56.80;101014.25;6259761;22;45116;-85
2023/06/03 06:59:53;;;;;;;;;21.00;17.67;;;;;19.29;56.40;101011.63;6258545;22;45468;-85
2023/06/03 07:02:20;;;;;;;;;17.00;17.00;;;;;19.30;56.18;101009.81;6232155;22;45415;-85
2023/06/03 07:04:48;;;;;;;;;21.00;19.00;;;;;19.32;56.49;101011.53;6233921;22;45359;-88
2023/06/03 07:07:13;;;;;;;;;19.33;19.33;;;;;19.33;56.36;101004.34;6230831;22;48051;-85
2023/06/03 07:09:41;;;;;;;;;26.33;19.67;;;;;19.49;56.26;101010.34;6257699;22;45289;-87
2023/06/03 07:12:27;;;;;;;;;18.00;18.00;;;;;19.54;55.89;100994.97;6231824;22;44745;-85
2023/06/03 07:14:53;;;;;;;;;21.67;21.33;;;;;19.62;55.36;101017.31;6236283;22;45594;-82
2023/06/03 07:17:19;;;;;;;;;21.33;20.67;;;;;19.70;55.31;101019.88;6257049;22;47359;-85
2023/06/03 07:20:20;;;;;;;;;24.33;23.00;;;;;19.88;55.13;101010.56;6257593;22;45369;-86
2023/06/03 07:22:46;;;;;;;;;18.00;18.00;;;;;19.64;55.12;100983.09;6257190;22;45364;-86
2023/06/03 07:25:29;;;;;;;;;19.33;19.33;;;;;19.71;55.38;100995.59;6230755;22;45836;-85
2023/06/03 07:27:55;;;;;;;;;20.00;18.33;;;;;19.77;55.59;101016.13;6256367;22;47013;-84
2023/06/03 07:30:20;;;;;;;;;20.00;16.67;;;;;19.83;55.24;101007.94;6255987;22;45439;-85
2023/06/03 07:32:46;;;;;;;;;21.33;20.33;;;;;20.03;54.90;101004.81;6257451;22;45318;-83
2023/06/03 07:35:18;;;;;;;;;19.00;19.00;;;;;20.21;54.32;101003.53;6259223;22;45377;-84
2023/06/03 07:37:50;;;;;;;;;18.00;18.00;;;;;20.43;53.90;101003.97;6232679;22;47085;-84
2023/06/03 07:40:16;;;;;;;;;20.67;18.00;;;;;20.31;53.98;100998.84;6232396;22;45357;-86
2023/06/03 07:42:47;;;;;;;;;16.33;15.33;;;;;20.37;53.85;100998.69;6257592;22;45113;-84
2023/06/03 07:45:15;;;;;;;;;20.00;18.00;;;;;20.39;53.86;101004.94;6260043;22;45326;-84
2023/06/03 07:51:02;;;;;;;;;20.00;18.33;;;;;20.27;53.39;101011.50;6256362;22;45370;-82
2023/06/03 07:53:30;;;;;;;;;15.33;12.67;;;;;20.31;53.80;101017.75;6258638;22;45334;-82
2023/06/03 07:55:56;;;;;;;;;17.67;15.67;;;;;20.43;53.94;101000.38;6258934;22;44780;-83
2023/06/03 07:58:25;;;;;;;;;17.33;15.33;;;;;20.65;53.29;101006.22;6258660;22;46004;-83
2023/06/03 08:00:53;;;;;;;;;17.00;16.00;;;;;20.65;53.24;101012.50;6257649;22;44694;-83
2023/06/03 08:03:22;;;;;;;;;17.67;17.67;;;;;20.69;52.93;100994.41;6258156;22;45208;-83
2023/06/03 08:05:50;;;;;;;;;20.67;20.67;;;;;20.77;52.97;101003.22;6230786;22;46014;-84
2023/06/03 08:08:26;;;;;;;;;21.33;18.67;;;;;20.90;52.65;101001.97;6258274;22;45775;-84
2023/06/03 08:10:51;;;;;;;;;19.00;17.67;;;;;20.94;51.84;101002.78;6232389;22;45368;-84
2023/06/03 08:13:18;;;;;;;;;19.00;18.00;;;;;20.98;52.05;100999.09;6256809;22;44756;-84
2023/06/03 08:15:43;;;;;;;;;16.33;16.00;;;;;21.01;52.35;101001.72;6231487;22;45386;-84
2023/06/03 08:18:22;;;;;;;;;11.00;11.00;;;;;21.16;51.81;101000.44;6258108;22;45370;-84
2023/06/03 08:20:47;;;;;;;;;16.33;16.33;;;;;21.17;51.70;100994.13;6230384;22;45591;-84
2023/06/03 08:23:15;;;;;;;;;15.00;13.67;;;;;21.33;51.03;101000.91;6231067;22;44756;-84
2023/06/03 08:25:42;;;;;;;;;17.33;15.00;;;;;21.34;51.29;100994.53;6231230;22;45418;-84
2023/06/03 08:28:08;;;;;;;;;18.67;16.00;;;;;21.35;51.56;100982.81;6254231;22;45303;-84
2023/06/03 08:30:33;;;;;;;;;15.00;14.00;;;;;;;;6255707;22;45223;-84
2023/06/03 08:33:00;;;;;;;;;16.00;16.00;;;;;21.64;51.12;100988.41;6257971;22;45484;-84
2023/06/03 08:35:26;;;;;;;;;19.33;16.00;;;;;21.64;50.24;100989.28;6231208;22;45356;-84
2023/06/03 08:37:52;;;;;;;;;21.33;17.67;;;;;21.60;50.43;100976.75;6231069;22;48170;-84
2023/06/03 08:40:17;;;;;;;;;15.33;14.00;;;;;21.63;50.47;100983.91;6260920;22;45367;-84
2023/06/03 08:42:46;;;;;;;;;16.33;15.33;;;;;21.72;50.41;100989.94;6260066;22;45281;-84
2023/06/03 08:45:16;;;;;;;;;16.33;16.00;;;;;21.78;50.40;100980.78;6259597;22;45353;-84
2023/06/03 08:47:57;;;;;;;;;20.00;15.33;;;;;21.95;50.61;100988.38;6259026;22;46802;-84
2023/06/03 08:50:24;;;;;;;;;17.33;17.33;;;;;21.98;49.83;100988.31;6256506;22;44806;-84
2023/06/03 08:52:52;;;;;;;;;14.67;13.33;;;;;22.12;49.49;100982.50;6230540;22;45264;-84
2023/06/03 08:55:19;;;;;;;;;17.00;15.33;;;;;22.14;49.46;100973.38;6232263;22;44769;-84
2023/06/03 08:58:15;;;;;;;;;15.67;13.00;;;;;22.31;48.76;100982.84;6259137;22;46204;-84
2023/06/03 09:00:41;;;;;;;;;13.33;11.67;;;;;22.28;49.48;100986.53;6230807;22;44808;-84
2023/06/03 09:03:12;;;;;;;;;15.00;14.33;;;;;22.47;49.60;100976.00;6260476;22;45746;-83
2023/06/03 09:05:41;;;;;;;;;15.33;15.33;;;;;22.41;48.54;100976.19;6207089;22;45312;-83
2023/06/03 09:08:08;;;;;;;;;15.33;15.33;;;;;22.43;48.58;100973.44;6257849;22;45357;-83
2023/06/03 09:10:35;;;;;;;;;14.33;14.33;;;;;22.44;48.84;100975.22;6258437;22;45276;-83
2023/06/03 09:13:02;;;;;;;;;19.00;17.33;;;;;22.40;48.36;100965.41;6232466;22;45328;-84
2023/06/03 09:15:30;;;;;;;;;15.00;14.00;;;;;22.50;48.56;100969.59;6256721;22;45442;-84
2023/06/03 09:17:56;;;;;;;;;9.67;9.67;;;;;22.47;47.50;100973.28;6230512;22;47188;-84
2023/06/03 09:20:22;;;;;;;;;11.33;10.33;;;;;22.49;48.03;100965.13;6232624;22;45414;-84
2023/06/03 09:22:48;;;;;;;;;12.67;10.33;;;;;22.48;47.75;100961.53;6232217;22;45390;-84
2023/06/03 09:25:14;;;;;;;;;13.67;13.67;;;;;22.50;47.42;100970.50;6259026;22;44705;-83
2023/06/03 09:27:40;;;;;;;;;11.33;11.33;;;;;22.50;48.27;100965.09;6255073;22;47034;-84
2023/06/03 09:30:07;;;;;;;;;13.00;13.00;;;;;22.64;48.03;100971.88;6227832;22;45340;-84
2023/06/03 09:32:35;;;;;;;;;14.33;14.00;;;;;22.72;47.92;100958.94;6253472;22;45641;-83
2023/06/03 09:35:08;;;;;;;;;10.67;9.00;;;;;22.70;47.54;100960.81;6260636;22;45375;-83
2023/06/03 09:37:34;;;;;;;;;14.00;12.00;;;;;22.78;47.46;100956.03;6258780;22;46210;-85
2023/06/03 09:40:04;;;;;;;;;11.67;11.67;;;;;22.87;46.82;100969.28;6230348;22;45398;-82
2023/06/03 09:42:41;;;;;;;;;13.67;10.33;;;;;22.96;45.56;100978.94;6255358;22;45357;-84
2023/06/03 09:45:07;;;;;;;;;11.00;11.00;;;;;22.86;45.42;100980.19;6253986;22;45307;-82
2023/06/03 09:47:35;;;;;;;;;11.00;11.00;;;;;22.81;44.71;100977.63;6256839;22;45353;-83
2023/06/03 09:50:11;;;;;;;;;10.00;10.00;;;;;22.88;45.06;100978.31;6255526;22;45582;-83
2023/06/03 09:52:37;;;;;;;;;9.33;9.33;;;;;22.89;46.24;100986.41;6255916;22;45767;-83
2023/06/03 09:55:10;;;;;;;;;13.67;13.00;;;;;22.97;45.53;100978.91;6255714;22;45417;-83
2023/06/03 09:57:36;;;;;;;;;11.00;9.67;;;;;22.93;45.18;100981.78;6254288;22;48497;-83
2023/06/03 10:00:11;;;;;;;;;18.33;13.67;;;;;22.97;45.15;100989.75;6257427;22;44799;-83
2023/06/03 10:02:43;;;;;;;;;13.33;12.33;;;;;22.92;44.79;100997.13;6257643;22;45496;-83
2023/06/03 10:05:27;;;;;;;;;14.33;11.00;;;;;22.95;45.38;100980.78;6258287;22;45145;-83
2023/06/03 10:07:52;;;;;;;;;11.00;11.00;;;;;22.86;45.43;100958.50;6255972;22;47141;-82
2023/06/03 10:10:20;;;;;;;;;14.00;12.33;;;;;22.92;45.68;100963.72;6258540;22;44866;-83
2023/06/03 10:12:48;;;;;;;;;11.67;11.67;;;;;22.99;45.08;100969.84;6229852;22;45349;-84
2023/06/03 10:15:33;;;;;;;;;9.33;9.33;;;;;23.04;45.29;100981.44;6231446;22;45442;-84
2023/06/03 10:17:58;;;;;;;;;10.67;10.67;;;;;23.05;44.16;100983.22;6255775;22;45453;-84
2023/06/03 10:20:35;;;;;;;;;11.00;11.00;;;;;23.06;45.17;100968.69;6257583;22;45344;-84
2023/06/03 10:23:05;;;;;;;;;10.00;10.00;;;;;23.11;45.08;100973.03;6231599;22;45408;-84
2023/06/03 10:25:52;;;;;;;;;13.00;11.00;;;;;23.08;45.00;100967.69;6231486;22;45351;-84
2023/06/03 10:28:21;;;;;;;;;14.67;12.33;;;;;23.05;45.47;100977.78;6257167;22;45337;-84
2023/06/03 10:30:51;;;;;;;;;14.67;13.67;;;;;23.12;44.96;100976.63;6211974;22;45281;-84
2023/06/03 10:33:19;;;;;;;;;15.00;15.00;;;;;23.13;45.31;100968.44;6200027;22;45789;-84
2023/06/03 10:35:49;;;;;;;;;10.67;10.67;;;;;23.10;45.41;100973.97;6222989;22;45410;-84
2023/06/03 10:38:18;;;;;;;;;15.33;12.00;;;;;23.13;45.06;100957.59;6223313;22;47780;-84
2023/06/03 10:40:44;;;;;;;;;13.00;13.00;;;;;23.14;45.28;100969.31;6199761;22;45379;-84
2023/06/03 10:43:10;;;;;;;;;12.67;10.00;;;;;23.18;44.67;100960.13;6227162;22;45076;-82
2023/06/03 10:45:36;;;;;;;;;14.00;14.00;;;;;23.20;45.15;100963.69;6200269;22;45527;-83
2023/06/03 10:51:45;;;;;;;;;11.33;11.33;;;;;23.30;44.51;100939.81;6229733;22;45585;-83
2023/06/03 10:54:30;;;;;;;;;11.33;11.00;;;;;23.42;44.47;100957.50;6202862;22;45239;-82
2023/06/03 10:57:06;;;;;;;;;13.00;13.00;;;;;23.44;44.31;100958.34;6202681;22;45509;-83
2023/06/03 10:59:43;;;;;;;;;14.33;14.33;;;;;23.51;43.92;100963.50;6200905;22;48024;-83
2023/06/03 11:02:13;;;;;;;;;11.00;9.33;;;;;23.51;43.50;100966.22;6227014;22;45346;-83
2023/06/03 11:04:40;;;;;;;;;14.00;12.33;;;;;23.47;43.00;100971.78;6229422;22;45232;-84
2023/06/03 11:07:07;;;;;;;;;11.00;11.00;;;;;23.49;43.32;100956.31;6228096;22;45035;-84
2023/06/03 11:09:37;;;;;;;;;14.00;13.33;;;;;23.53;43.63;100952.56;6226993;22;45962;-84
2023/06/03 11:12:05;;;;;;;;;13.00;13.00;;;;;23.53;43.07;100953.47;6201369;22;45323;-84
2023/06/03 11:14:32;;;;;;;;;15.67;14.33;;;;;23.61;41.27;100949.56;6198446;22;45208;-83
2023/06/03 11:16:58;;;;;;;;;13.33;13.33;;;;;23.66;42.18;100956.59;6225490;22;45658;-83
2023/06/03 11:19:30;;;;;;;;;13.33;11.33;;;;;23.77;42.52;100939.94;6198135;22;46645;-83
2023/06/03 11:21:57;;;;;;;;;11.33;11.33;;;;;23.88;42.06;100953.13;6197138;22;45277;-84
2023/06/03 11:24:44;;;;;;;;;11.00;10.33;;;;;24.00;41.96;100958.09;6226180;22;44698;-83
2023/06/03 11:27:15;;;;;;;;;14.67;12.67;;;;;23.98;41.94;100962.69;6225412;22;44747;-83
2023/06/03 11:29:46;;;;;;;;;14.00;12.33;;;;;24.07;42.39;100947.88;6225539;22;46671;-83